Stigler, OK

2:31 PM CDT on September 20, 2017 (GMT -0500)
Stigler

Weather History for KGZL - July, 2013

Change the Weather History Date:

Saturday, July 6, 2013

  Actual Average (KJSV) Record (KJSV)
Temperature  
Mean Temperature 80 °F -  
Max Temperature 91 °F 91 °F 105 °F (1953)
Min Temperature 69 °F 68 °F 50 °F (1972)
Cooling Degree Days 15    
Growing Degree Days 30 (Base 50)    
Moisture  
Dew Point 57 °F    
Average Humidity 46    
Maximum Humidity 68    
Minimum Humidity 24    
Precipitation  
Precipitation 0.00 in - - ()
Sea Level Pressure  
Sea Level Pressure 29.97 in    
Wind  
Wind Speed 6 mph (SE)    
Max Wind Speed 13 mph    
Max Gust Speed 18 mph    
Visibility 10 miles    
Events      
Averages and records for this station are not official NWS values.
T = Trace of Precipitation, MM = Missing Value Source: NWS Daily Summary

Daily Weather History Graph

Daily Weather History Graph

Search for Another Location

Airport or City:

Trip Planner

Search our weather history database for the weather conditions in past years. The results will help you decide how hot, cold, wet, or windy it might be!

Date:

Astronomy

Jul. 06, 2013 Rise Set
Actual Time 6:11 AM CDT 8:38 PM CDT
Civil Twilight 5:42 AM CDT 9:07 PM CDT
Nautical Twilight 5:05 AM CDT 9:44 PM CDT
Astronomical Twilight 4:25 AM CDT 10:24 PM CDT
Moon 4:56 AM CDT (7/6) 7:22 PM CDT (7/6)
Length of Visible Light 15h 25m
Length of Day
14h 26m
Waning Crescent, 2% of the Moon is Illuminated
Jul 6
Waning Crescent
Jul 8
New
Jul 15
First Quarter
Jul 22
Full
Jul 29
Last Quarter

Hourly Weather History & Observations

Time (CDT) Temp. Heat Index Dew Point Humidity Pressure Visibility Wind Dir Wind Speed Gust Speed Precip Events Conditions
12:15 AM 75.2 °F - 57.2 °F 53% 29.97 in 10.0 mi SSE 4.6 mph - N/A   Unknown
12:35 AM 75.2 °F - 57.2 °F 53% 29.97 in 10.0 mi SSE 3.5 mph - N/A   Unknown
12:55 AM 73.4 °F - 57.2 °F 57% 29.97 in 10.0 mi SSE 3.5 mph - N/A   Unknown
1:15 AM 73.4 °F - 57.2 °F 57% 29.98 in 10.0 mi SE 5.8 mph - N/A   Unknown
1:35 AM 73.4 °F - 57.2 °F 57% 29.97 in 10.0 mi SE 6.9 mph - N/A   Unknown
1:55 AM 73.4 °F - 57.2 °F 57% 29.97 in 10.0 mi SSE 4.6 mph - N/A   Unknown
2:15 AM 73.4 °F - 57.2 °F 57% 29.97 in 9.0 mi SE 4.6 mph - N/A   Unknown
2:35 AM 73.4 °F - 57.2 °F 57% 29.97 in 9.0 mi SE 4.6 mph - N/A   Unknown
2:55 AM 73.4 °F - 57.2 °F 57% 29.97 in 10.0 mi SE 4.6 mph - N/A   Unknown
3:15 AM 73.4 °F - 57.2 °F 57% 29.97 in 10.0 mi SE 4.6 mph - N/A   Unknown
3:35 AM 73.4 °F - 57.2 °F 57% 29.97 in 10.0 mi ESE 5.8 mph - N/A   Unknown
3:55 AM 71.6 °F - 57.2 °F 60% 29.96 in 10.0 mi ESE 6.9 mph - N/A   Unknown
4:15 AM 71.6 °F - 59.0 °F 64% 29.96 in 10.0 mi ESE 5.8 mph - N/A   Unknown
4:35 AM 69.8 °F - 59.0 °F 68% 29.96 in 10.0 mi ESE 4.6 mph - N/A   Unknown
4:55 AM 71.6 °F - 59.0 °F 64% 29.96 in 10.0 mi ESE 4.6 mph - N/A   Unknown
5:15 AM 71.6 °F - 59.0 °F 64% 29.96 in 10.0 mi ESE 5.8 mph - N/A   Unknown
5:35 AM 69.8 °F - 59.0 °F 68% 29.97 in 10.0 mi ESE 5.8 mph - N/A   Unknown
5:55 AM 69.8 °F - 59.0 °F 68% 29.97 in 10.0 mi ESE 6.9 mph - N/A   Unknown
6:15 AM 69.8 °F - 59.0 °F 68% 29.97 in 9.0 mi ESE 8.1 mph - N/A   Unknown
6:35 AM 69.8 °F - 59.0 °F 68% 29.98 in 7.0 mi ESE 9.2 mph - N/A   Unknown
6:55 AM 69.8 °F - 59.0 °F 68% 29.98 in 9.0 mi ESE 9.2 mph - N/A   Unknown
7:15 AM 71.6 °F - 59.0 °F 64% 29.99 in 9.0 mi ESE 9.2 mph - N/A   Unknown
7:35 AM 71.6 °F - 59.0 °F 64% 29.98 in 9.0 mi ESE 8.1 mph - N/A   Unknown
7:55 AM 73.4 °F - 59.0 °F 61% 29.99 in 9.0 mi ESE 8.1 mph - N/A   Unknown
8:15 AM 75.2 °F - 57.2 °F 53% 30.00 in 10.0 mi East 10.4 mph - N/A   Unknown
8:35 AM 75.2 °F - 59.0 °F 57% 30.00 in 9.0 mi ESE 9.2 mph - N/A   Unknown
8:55 AM 77.0 °F - 57.2 °F 50% 30.00 in 9.0 mi SE 5.8 mph - N/A   Unknown
9:15 AM 80.6 °F 80.8 °F 57.2 °F 45% 30.00 in 10.0 mi ESE 6.9 mph - N/A   Unknown
9:35 AM 82.4 °F 82.0 °F 57.2 °F 42% 30.01 in 10.0 mi SE 8.1 mph - N/A   Unknown
9:55 AM 82.4 °F 82.0 °F 57.2 °F 42% 30.01 in 10.0 mi SE 9.2 mph - N/A   Unknown
10:15 AM 82.4 °F 82.0 °F 57.2 °F 42% 30.01 in 9.0 mi ESE 8.1 mph - N/A   Unknown
10:35 AM 84.2 °F 83.5 °F 57.2 °F 40% 30.01 in 10.0 mi ESE 9.2 mph - N/A   Unknown
10:55 AM 84.2 °F 83.8 °F 59.0 °F 42% 30.01 in 10.0 mi East 8.1 mph - N/A   Unknown
11:15 AM 86.0 °F 84.5 °F 55.4 °F 35% 30.01 in 10.0 mi ESE 5.8 mph - N/A   Unknown
11:35 AM 86.0 °F 84.5 °F 55.4 °F 35% 30.01 in 10.0 mi SE 5.8 mph - N/A   Unknown
11:55 AM 89.6 °F 87.7 °F 55.4 °F 31% 30.01 in 9.0 mi SSE 6.9 mph - N/A   Unknown
12:15 PM 89.6 °F 87.3 °F 53.6 °F 29% 30.00 in 10.0 mi SSE 10.4 mph - N/A   Unknown
12:35 PM 91.4 °F 89.1 °F 53.6 °F 28% 29.99 in 9.0 mi South 10.4 mph - N/A   Unknown
12:55 PM 91.4 °F 89.1 °F 53.6 °F 28% 29.98 in 9.0 mi South 12.7 mph 17.3 mph N/A   Unknown
1:15 PM 91.4 °F 89.1 °F 53.6 °F 28% 29.98 in 10.0 mi South 10.4 mph 18.4 mph N/A   Unknown
1:35 PM 89.6 °F 87.3 °F 53.6 °F 29% 29.97 in 10.0 mi South 9.2 mph - N/A   Unknown
1:55 PM 91.4 °F 89.1 °F 53.6 °F 28% 29.97 in 10.0 mi South 8.1 mph - N/A   Unknown
2:15 PM 91.4 °F 89.1 °F 53.6 °F 28% 29.96 in 10.0 mi SE 11.5 mph - N/A   Unknown
2:35 PM 91.4 °F 89.1 °F 53.6 °F 28% 29.96 in 10.0 mi South 6.9 mph - N/A   Unknown
2:55 PM 91.4 °F 89.1 °F 53.6 °F 28% 29.96 in 10.0 mi SSE 8.1 mph - N/A   Unknown
3:15 PM 91.4 °F - 50.0 °F 24% 29.96 in 10.0 mi SE 9.2 mph - N/A   Unknown
3:35 PM 89.6 °F - 51.8 °F 27% 29.95 in 10.0 mi SE 8.1 mph - N/A   Unknown
3:55 PM 89.6 °F - 50.0 °F 26% 29.94 in 10.0 mi SSE 5.8 mph - N/A   Unknown
4:15 PM 89.6 °F - 51.8 °F 27% 29.94 in 10.0 mi SSW 8.1 mph - N/A   Unknown
4:35 PM 89.6 °F 87.3 °F 53.6 °F 29% 29.94 in 10.0 mi South 5.8 mph - N/A   Unknown
4:55 PM 89.6 °F 87.3 °F 53.6 °F 29% 29.94 in 10.0 mi South 6.9 mph - N/A   Unknown
5:15 PM 89.6 °F 87.3 °F 53.6 °F 29% 29.94 in 10.0 mi South 8.1 mph - N/A   Unknown
5:35 PM 91.4 °F 89.1 °F 53.6 °F 28% 29.94 in 10.0 mi South 6.9 mph - N/A   Unknown
5:55 PM 89.6 °F 87.3 °F 53.6 °F 29% 29.93 in 10.0 mi SSE 8.1 mph - N/A   Unknown
6:15 PM 89.6 °F 87.3 °F 53.6 °F 29% 29.93 in 10.0 mi South 4.6 mph - N/A   Unknown
6:35 PM 87.8 °F 86.1 °F 55.4 °F 33% 29.93 in 10.0 mi SSE 4.6 mph - N/A   Unknown
6:55 PM 86.0 °F 84.9 °F 57.2 °F 37% 29.93 in 9.0 mi SSE 3.5 mph - N/A   Unknown
7:15 PM 86.0 °F 84.9 °F 57.2 °F 37% 29.93 in 10.0 mi SSE 4.6 mph - N/A   Unknown
7:55 PM 86.0 °F 84.9 °F 57.2 °F 37% 29.94 in 10.0 mi SSE 3.5 mph - N/A   Unknown
8:15 PM 84.2 °F 83.5 °F 57.2 °F 40% 29.94 in 10.0 mi SSE 3.5 mph - N/A   Unknown
8:35 PM 82.4 °F 82.9 °F 60.8 °F 48% 29.94 in 10.0 mi SE 4.6 mph - N/A   Unknown
8:55 PM 80.6 °F 81.1 °F 59.0 °F 48% 29.94 in 10.0 mi SE 5.8 mph - N/A   Unknown
9:15 PM 80.6 °F 81.1 °F 59.0 °F 48% 29.95 in 10.0 mi ESE 4.6 mph - N/A   Unknown
9:35 PM 80.6 °F 81.1 °F 59.0 °F 48% 29.95 in 9.0 mi SE 5.8 mph - N/A   Unknown
9:55 PM 80.6 °F 80.8 °F 57.2 °F 45% 29.96 in 10.0 mi SSE 5.8 mph - N/A   Unknown
10:15 PM 80.6 °F 80.8 °F 57.2 °F 45% 29.96 in 10.0 mi SSE 8.1 mph - N/A   Unknown
10:35 PM 80.6 °F 81.1 °F 59.0 °F 48% 29.97 in 9.0 mi SSE 6.9 mph - N/A   Unknown
10:55 PM 78.8 °F - 59.0 °F 51% 29.98 in 10.0 mi SSE 5.8 mph - N/A   Unknown
11:15 PM 78.8 °F - 59.0 °F 51% 29.98 in 10.0 mi SSE 4.6 mph - N/A   Unknown
11:35 PM 78.8 °F - 59.0 °F 51% 29.98 in 10.0 mi SSE 5.8 mph - N/A   Unknown
11:55 PM 78.8 °F - 59.0 °F 51% 29.98 in 10.0 mi SSE 3.5 mph - N/A   Unknown